Terminal Aerodrome Forecast
Issued by NWS

Home | Current Version | Previous Version | Text Only | Print | Product List | Glossary On
Versions: 1 2 3 4 5 6 7 8 9 10 11 12 13 14 15 16 17
120
FTAK31 PAJN 301728
TAFAKT
TAF
PAKT 301728Z 3018/3118 34008KT P6SM SCT015 BKN025 OVC035
     FM302100 34010KT P6SM SCT025 BKN040
     FM310300 33007KT P6SM FEW015 SCT025 BKN050
     FM310800 31004KT P6SM BKN015 OVC035
     FM311200 31004KT P6SM BKN007 OVC012
     FM311700 33007KT P6SM SCT008 BKN015 OVC025
      AMD LTD TO CLD VIS AND WIND 3106/3115=

USA.gov is the U.S. government's official web portal to all federal, state and local government web resources and services.